sensor_id;sensor_type;location;lat;lon;timestamp;pressure;altitude;pressure_sealevel;temperature;humidity
21096;BME280;10706;49.036;12.112;2022-08-24T00:01:20;97981.94;;;15.15;89.50
21096;BME280;10706;49.036;12.112;2022-08-24T00:03:47;97985.44;;;15.15;90.37
21096;BME280;10706;49.036;12.112;2022-08-24T00:06:18;97985.19;;;15.17;89.98
21096;BME280;10706;49.036;12.112;2022-08-24T00:08:47;97985.94;;;15.12;89.42
21096;BME280;10706;49.036;12.112;2022-08-24T00:11:15;97986.97;;;15.06;89.18
21096;BME280;10706;49.036;12.112;2022-08-24T00:13:41;97986.94;;;15.01;89.53
21096;BME280;10706;49.036;12.112;2022-08-24T00:16:12;97994.97;;;14.96;89.44
21096;BME280;10706;49.036;12.112;2022-08-24T00:18:39;97986.34;;;14.94;89.36
21096;BME280;10706;49.036;12.112;2022-08-24T00:21:04;97977.72;;;14.92;89.48
21096;BME280;10706;49.036;12.112;2022-08-24T00:23:30;97984.22;;;14.96;89.59
21096;BME280;10706;49.036;12.112;2022-08-24T00:25:57;97991.16;;;14.92;90.31
21096;BME280;10706;49.036;12.112;2022-08-24T00:28:23;97994.38;;;14.89;90.33
21096;BME280;10706;49.036;12.112;2022-08-24T00:30:49;97985.47;;;14.83;90.39
21096;BME280;10706;49.036;12.112;2022-08-24T00:33:15;97986.50;;;14.82;90.47
21096;BME280;10706;49.036;12.112;2022-08-24T00:35:41;97990.00;;;14.77;89.82
21096;BME280;10706;49.036;12.112;2022-08-24T00:38:06;97987.31;;;14.77;90.23
21096;BME280;10706;49.036;12.112;2022-08-24T00:40:37;97987.00;;;14.74;89.80
21096;BME280;10706;49.036;12.112;2022-08-24T00:43:07;97985.91;;;14.70;89.84
21096;BME280;10706;49.036;12.112;2022-08-24T00:48:38;97985.84;;;14.65;90.18
21096;BME280;10706;49.036;12.112;2022-08-24T00:51:35;97993.84;;;14.60;89.81
21096;BME280;10706;49.036;12.112;2022-08-24T00:54:08;97987.72;;;14.64;90.02
21096;BME280;10706;49.036;12.112;2022-08-24T00:56:44;97982.06;;;14.66;90.74
21096;BME280;10706;49.036;12.112;2022-08-24T00:59:21;97989.22;;;14.55;90.10
21096;BME280;10706;49.036;12.112;2022-08-24T01:01:50;97989.72;;;14.52;90.85
21096;BME280;10706;49.036;12.112;2022-08-24T01:04:23;97992.34;;;14.47;91.36
21096;BME280;10706;49.036;12.112;2022-08-24T01:06:57;97989.41;;;14.48;91.73
21096;BME280;10706;49.036;12.112;2022-08-24T01:09:23;97994.53;;;14.50;91.48
21096;BME280;10706;49.036;12.112;2022-08-24T01:11:48;97996.44;;;14.54;91.36
21096;BME280;10706;49.036;12.112;2022-08-24T01:14:17;97995.25;;;14.67;91.60
21096;BME280;10706;49.036;12.112;2022-08-24T01:16:44;97997.16;;;14.67;91.19
21096;BME280;10706;49.036;12.112;2022-08-24T01:19:35;97984.88;;;14.76;91.13
21096;BME280;10706;49.036;12.112;2022-08-24T01:24:34;97989.75;;;14.79;89.83
21096;BME280;10706;49.036;12.112;2022-08-24T01:27:01;97980.28;;;14.76;90.20
21096;BME280;10706;49.036;12.112;2022-08-24T01:29:28;97979.69;;;14.69;90.61
21096;BME280;10706;49.036;12.112;2022-08-24T01:31:56;97986.66;;;14.65;90.97
21096;BME280;10706;49.036;12.112;2022-08-24T01:34:22;97985.78;;;14.60;90.53
21096;BME280;10706;49.036;12.112;2022-08-24T01:36:53;97986.53;;;14.55;90.54
21096;BME280;10706;49.036;12.112;2022-08-24T01:39:29;97982.47;;;14.52;90.75
21096;BME280;10706;49.036;12.112;2022-08-24T01:41:56;97981.88;;;14.45;91.04
21096;BME280;10706;49.036;12.112;2022-08-24T01:44:25;97983.69;;;14.39;91.87
21096;BME280;10706;49.036;12.112;2022-08-24T01:46:54;97986.38;;;14.39;91.48
21096;BME280;10706;49.036;12.112;2022-08-24T01:49:25;97984.50;;;14.40;91.49
21096;BME280;10706;49.036;12.112;2022-08-24T01:51:51;97981.81;;;14.40;91.29
21096;BME280;10706;49.036;12.112;2022-08-24T01:54:17;97982.00;;;14.33;91.92
21096;BME280;10706;49.036;12.112;2022-08-24T01:56:43;97987.91;;;14.30;92.25
21096;BME280;10706;49.036;12.112;2022-08-24T01:59:09;97989.72;;;14.25;92.31
21096;BME280;10706;49.036;12.112;2022-08-24T02:01:45;97985.66;;;14.22;91.83
21096;BME280;10706;49.036;12.112;2022-08-24T02:04:11;97981.09;;;14.23;93.04
21096;BME280;10706;49.036;12.112;2022-08-24T02:06:37;97992.59;;;14.18;92.65
21096;BME280;10706;49.036;12.112;2022-08-24T02:09:04;97993.09;;;14.15;92.39
21096;BME280;10706;49.036;12.112;2022-08-24T02:11:30;97993.94;;;14.15;92.58
21096;BME280;10706;49.036;12.112;2022-08-24T02:13:57;97994.16;;;14.14;93.35
21096;BME280;10706;49.036;12.112;2022-08-24T02:16:23;97995.28;;;14.18;92.81
21096;BME280;10706;49.036;12.112;2022-08-24T02:18:49;97994.16;;;14.14;92.44
21096;BME280;10706;49.036;12.112;2022-08-24T02:21:15;97996.31;;;14.12;92.24
21096;BME280;10706;49.036;12.112;2022-08-24T02:23:42;97990.38;;;14.10;92.99
21096;BME280;10706;49.036;12.112;2022-08-24T02:26:10;97999.22;;;14.10;92.86
21096;BME280;10706;49.036;12.112;2022-08-24T02:28:37;97997.91;;;14.13;92.70
21096;BME280;10706;49.036;12.112;2022-08-24T02:31:05;97996.78;;;14.09;93.23
21096;BME280;10706;49.036;12.112;2022-08-24T02:33:35;97994.03;;;14.04;92.77
21096;BME280;10706;49.036;12.112;2022-08-24T02:36:05;97994.25;;;13.97;93.21
21096;BME280;10706;49.036;12.112;2022-08-24T02:38:31;97996.94;;;13.97;93.24
21096;BME280;10706;49.036;12.112;2022-08-24T02:40:57;98007.91;;;13.95;93.05
21096;BME280;10706;49.036;12.112;2022-08-24T02:43:24;98001.44;;;13.91;93.77
21096;BME280;10706;49.036;12.112;2022-08-24T02:45:50;98008.69;;;13.91;93.94
21096;BME280;10706;49.036;12.112;2022-08-24T02:48:16;98006.28;;;13.94;93.51
21096;BME280;10706;49.036;12.112;2022-08-24T02:50:46;98004.69;;;13.93;93.87
21096;BME280;10706;49.036;12.112;2022-08-24T02:53:14;98005.72;;;13.92;94.01
21096;BME280;10706;49.036;12.112;2022-08-24T02:55:42;98006.00;;;13.91;93.11
21096;BME280;10706;49.036;12.112;2022-08-24T02:58:10;98008.16;;;13.94;93.42
21096;BME280;10706;49.036;12.112;2022-08-24T03:00:38;98006.41;;;14.05;93.77
21096;BME280;10706;49.036;12.112;2022-08-24T03:03:06;98005.94;;;14.08;93.72
21096;BME280;10706;49.036;12.112;2022-08-24T03:05:33;98017.22;;;14.10;92.52
21096;BME280;10706;49.036;12.112;2022-08-24T03:07:59;98021.03;;;14.14;92.64
21096;BME280;10706;49.036;12.112;2022-08-24T03:10:25;98016.34;;;14.04;92.28
21096;BME280;10706;49.036;12.112;2022-08-24T03:12:51;98010.72;;;14.06;92.31
21096;BME280;10706;49.036;12.112;2022-08-24T03:15:18;98012.28;;;14.02;92.63
21096;BME280;10706;49.036;12.112;2022-08-24T03:17:47;98017.97;;;14.05;92.79
21096;BME280;10706;49.036;12.112;2022-08-24T03:20:19;98012.53;;;14.00;92.00
21096;BME280;10706;49.036;12.112;2022-08-24T03:22:45;98013.34;;;14.00;92.37
21096;BME280;10706;49.036;12.112;2022-08-24T03:25:14;98015.41;;;13.93;91.54
21096;BME280;10706;49.036;12.112;2022-08-24T03:27:40;98011.66;;;13.94;92.08
21096;BME280;10706;49.036;12.112;2022-08-24T03:30:09;98016.34;;;13.82;92.68
21096;BME280;10706;49.036;12.112;2022-08-24T03:32:38;98017.03;;;13.72;93.22
21096;BME280;10706;49.036;12.112;2022-08-24T03:35:04;98015.63;;;13.70;93.39
21096;BME280;10706;49.036;12.112;2022-08-24T03:37:33;98017.91;;;13.78;93.33
21096;BME280;10706;49.036;12.112;2022-08-24T03:39:59;98022.53;;;13.83;93.39
21096;BME280;10706;49.036;12.112;2022-08-24T03:42:25;98018.09;;;13.93;92.95
21096;BME280;10706;49.036;12.112;2022-08-24T03:44:50;98018.47;;;13.80;93.56
21096;BME280;10706;49.036;12.112;2022-08-24T03:47:16;98025.66;;;13.74;93.92
21096;BME280;10706;49.036;12.112;2022-08-24T03:49:43;98028.25;;;13.69;93.20
21096;BME280;10706;49.036;12.112;2022-08-24T03:52:09;98028.09;;;13.76;93.00
21096;BME280;10706;49.036;12.112;2022-08-24T03:54:34;98042.47;;;13.70;93.09
21096;BME280;10706;49.036;12.112;2022-08-24T03:57:00;98032.94;;;13.79;93.96
21096;BME280;10706;49.036;12.112;2022-08-24T03:59:26;98026.88;;;13.89;93.62
21096;BME280;10706;49.036;12.112;2022-08-24T04:01:52;98031.22;;;13.90;92.71
21096;BME280;10706;49.036;12.112;2022-08-24T04:04:20;98023.63;;;13.87;92.68
21096;BME280;10706;49.036;12.112;2022-08-24T04:06:46;98021.41;;;13.78;93.46
21096;BME280;10706;49.036;12.112;2022-08-24T04:09:14;98018.88;;;13.72;93.63
21096;BME280;10706;49.036;12.112;2022-08-24T04:11:40;98030.13;;;13.69;93.06
21096;BME280;10706;49.036;12.112;2022-08-24T04:14:07;98027.22;;;13.70;93.06
21096;BME280;10706;49.036;12.112;2022-08-24T04:16:33;98032.75;;;13.64;93.53
21096;BME280;10706;49.036;12.112;2022-08-24T04:18:59;98028.13;;;13.59;93.87
21096;BME280;10706;49.036;12.112;2022-08-24T04:21:31;98023.81;;;13.58;93.93
21096;BME280;10706;49.036;12.112;2022-08-24T04:23:58;98023.31;;;13.61;94.12
21096;BME280;10706;49.036;12.112;2022-08-24T04:26:27;98020.75;;;13.71;94.12
21096;BME280;10706;49.036;12.112;2022-08-24T04:28:55;98018.56;;;13.68;94.45
21096;BME280;10706;49.036;12.112;2022-08-24T04:31:21;98020.22;;;13.69;94.33
21096;BME280;10706;49.036;12.112;2022-08-24T04:33:49;98032.25;;;13.67;94.27
21096;BME280;10706;49.036;12.112;2022-08-24T04:36:18;98023.69;;;13.70;93.88
21096;BME280;10706;49.036;12.112;2022-08-24T04:38:44;98033.13;;;13.72;94.10
21096;BME280;10706;49.036;12.112;2022-08-24T04:41:12;98024.97;;;13.84;93.63
21096;BME280;10706;49.036;12.112;2022-08-24T04:43:39;98030.03;;;14.03;93.36
21096;BME280;10706;49.036;12.112;2022-08-24T04:46:11;98037.00;;;14.04;92.68
21096;BME280;10706;49.036;12.112;2022-08-24T04:48:40;98032.72;;;14.03;93.62
21096;BME280;10706;49.036;12.112;2022-08-24T04:51:08;98040.38;;;14.16;92.40
21096;BME280;10706;49.036;12.112;2022-08-24T04:53:35;98041.63;;;14.30;92.30
21096;BME280;10706;49.036;12.112;2022-08-24T04:56:01;98043.13;;;14.21;92.22
21096;BME280;10706;49.036;12.112;2022-08-24T04:58:29;98051.44;;;14.42;91.02
21096;BME280;10706;49.036;12.112;2022-08-24T05:00:55;98044.97;;;14.43;90.99
21096;BME280;10706;49.036;12.112;2022-08-24T05:03:21;98045.84;;;14.48;91.12
21096;BME280;10706;49.036;12.112;2022-08-24T05:05:49;98048.34;;;14.55;91.05
21096;BME280;10706;49.036;12.112;2022-08-24T05:08:18;98046.88;;;14.69;90.12
21096;BME280;10706;49.036;12.112;2022-08-24T05:10:46;98051.75;;;14.72;90.54
21096;BME280;10706;49.036;12.112;2022-08-24T05:13:14;98048.16;;;14.62;90.27
21096;BME280;10706;49.036;12.112;2022-08-24T05:15:43;98048.22;;;14.67;90.47
21096;BME280;10706;49.036;12.112;2022-08-24T05:18:09;98049.00;;;14.67;90.36
21096;BME280;10706;49.036;12.112;2022-08-24T05:20:43;98059.81;;;14.72;90.40
21096;BME280;10706;49.036;12.112;2022-08-24T05:23:10;98057.38;;;14.71;89.70
21096;BME280;10706;49.036;12.112;2022-08-24T05:25:36;98063.97;;;14.85;89.55
21096;BME280;10706;49.036;12.112;2022-08-24T05:28:03;98062.72;;;14.93;89.51
21096;BME280;10706;49.036;12.112;2022-08-24T05:30:28;98053.00;;;14.92;88.70
21096;BME280;10706;49.036;12.112;2022-08-24T05:32:54;98061.94;;;14.97;88.93
21096;BME280;10706;49.036;12.112;2022-08-24T05:35:20;98062.47;;;14.94;88.64
21096;BME280;10706;49.036;12.112;2022-08-24T05:37:46;98059.75;;;14.94;89.34
21096;BME280;10706;49.036;12.112;2022-08-24T05:40:15;98058.56;;;15.12;88.57
21096;BME280;10706;49.036;12.112;2022-08-24T05:42:41;98059.72;;;15.22;88.92
21096;BME280;10706;49.036;12.112;2022-08-24T05:45:07;98064.16;;;15.38;87.60
21096;BME280;10706;49.036;12.112;2022-08-24T05:47:35;98069.47;;;15.28;87.65
21096;BME280;10706;49.036;12.112;2022-08-24T05:50:02;98067.94;;;15.42;87.79
21096;BME280;10706;49.036;12.112;2022-08-24T05:52:29;98071.88;;;15.29;88.33
21096;BME280;10706;49.036;12.112;2022-08-24T05:54:58;98074.72;;;15.50;87.98
21096;BME280;10706;49.036;12.112;2022-08-24T05:57:26;98077.78;;;15.64;86.37
21096;BME280;10706;49.036;12.112;2022-08-24T05:59:55;98077.50;;;15.65;87.28
21096;BME280;10706;49.036;12.112;2022-08-24T06:02:20;98069.72;;;15.64;87.07
21096;BME280;10706;49.036;12.112;2022-08-24T06:04:48;98071.31;;;15.65;87.31
21096;BME280;10706;49.036;12.112;2022-08-24T06:07:13;98076.00;;;15.80;87.29
21096;BME280;10706;49.036;12.112;2022-08-24T06:09:40;98067.91;;;15.74;86.21
21096;BME280;10706;49.036;12.112;2022-08-24T06:12:08;98069.88;;;15.89;85.66
21096;BME280;10706;49.036;12.112;2022-08-24T06:14:34;98065.97;;;16.18;84.12
21096;BME280;10706;49.036;12.112;2022-08-24T06:17:04;98070.03;;;16.25;84.72
21096;BME280;10706;49.036;12.112;2022-08-24T06:19:31;98074.97;;;16.49;84.08
21096;BME280;10706;49.036;12.112;2022-08-24T06:21:57;98073.88;;;16.45;83.71
21096;BME280;10706;49.036;12.112;2022-08-24T06:24:23;98074.94;;;16.44;84.65
21096;BME280;10706;49.036;12.112;2022-08-24T06:27:14;98066.91;;;16.64;83.48
21096;BME280;10706;49.036;12.112;2022-08-24T06:30:03;98060.19;;;16.77;82.91
21096;BME280;10706;49.036;12.112;2022-08-24T06:32:29;98068.81;;;16.74;83.80
21096;BME280;10706;49.036;12.112;2022-08-24T06:34:57;98065.56;;;16.72;83.31
21096;BME280;10706;49.036;12.112;2022-08-24T06:37:24;98066.41;;;16.78;83.44
21096;BME280;10706;49.036;12.112;2022-08-24T06:39:56;98064.53;;;16.78;83.81
21096;BME280;10706;49.036;12.112;2022-08-24T06:42:22;98066.44;;;16.83;83.35
21096;BME280;10706;49.036;12.112;2022-08-24T06:44:54;98067.53;;;16.87;83.65
21096;BME280;10706;49.036;12.112;2022-08-24T06:47:20;98068.06;;;16.94;82.94
21096;BME280;10706;49.036;12.112;2022-08-24T06:49:46;98067.53;;;17.07;82.92
21096;BME280;10706;49.036;12.112;2022-08-24T06:52:13;98073.75;;;16.98;83.59
21096;BME280;10706;49.036;12.112;2022-08-24T06:54:38;98081.84;;;17.03;82.68
21096;BME280;10706;49.036;12.112;2022-08-24T06:57:05;98069.44;;;17.17;82.74
21096;BME280;10706;49.036;12.112;2022-08-24T06:59:32;98082.13;;;17.32;81.91
21096;BME280;10706;49.036;12.112;2022-08-24T07:01:59;98077.00;;;17.46;81.45
21096;BME280;10706;49.036;12.112;2022-08-24T07:04:26;98084.81;;;17.58;81.32
21096;BME280;10706;49.036;12.112;2022-08-24T07:06:54;98084.81;;;17.63;81.99
21096;BME280;10706;49.036;12.112;2022-08-24T07:09:20;98073.97;;;17.73;81.39
21096;BME280;10706;49.036;12.112;2022-08-24T07:11:50;98079.94;;;17.85;80.66
21096;BME280;10706;49.036;12.112;2022-08-24T07:14:16;98090.16;;;18.04;80.42
21096;BME280;10706;49.036;12.112;2022-08-24T07:16:43;98090.63;;;18.16;80.00
21096;BME280;10706;49.036;12.112;2022-08-24T07:19:09;98097.16;;;18.10;78.82
21096;BME280;10706;49.036;12.112;2022-08-24T07:21:35;98087.41;;;18.14;79.18
21096;BME280;10706;49.036;12.112;2022-08-24T07:24:01;98094.13;;;18.22;78.20
21096;BME280;10706;49.036;12.112;2022-08-24T07:26:30;98097.03;;;18.41;78.88
21096;BME280;10706;49.036;12.112;2022-08-24T07:29:05;98096.13;;;18.61;78.51
21096;BME280;10706;49.036;12.112;2022-08-24T07:31:37;98091.00;;;18.59;77.24
21096;BME280;10706;49.036;12.112;2022-08-24T07:34:05;98086.97;;;18.52;76.83
21096;BME280;10706;49.036;12.112;2022-08-24T07:36:32;98085.91;;;18.53;77.07
21096;BME280;10706;49.036;12.112;2022-08-24T07:38:58;98093.22;;;18.47;76.86
21096;BME280;10706;49.036;12.112;2022-08-24T07:41:25;98083.38;;;18.67;77.17
21096;BME280;10706;49.036;12.112;2022-08-24T07:43:53;98092.03;;;18.69;76.49
21096;BME280;10706;49.036;12.112;2022-08-24T07:46:19;98091.44;;;18.82;76.17
21096;BME280;10706;49.036;12.112;2022-08-24T07:48:45;98084.81;;;19.03;76.05
21096;BME280;10706;49.036;12.112;2022-08-24T07:51:16;98087.16;;;19.15;76.61
21096;BME280;10706;49.036;12.112;2022-08-24T07:53:42;98085.44;;;19.30;75.29
21096;BME280;10706;49.036;12.112;2022-08-24T07:56:12;98088.94;;;19.59;74.37
21096;BME280;10706;49.036;12.112;2022-08-24T07:58:38;98087.47;;;19.43;74.43
21096;BME280;10706;49.036;12.112;2022-08-24T08:01:04;98080.28;;;19.28;73.68
21096;BME280;10706;49.036;12.112;2022-08-24T08:03:31;98081.94;;;19.24;73.95
21096;BME280;10706;49.036;12.112;2022-08-24T08:06:02;98082.09;;;19.38;74.93
21096;BME280;10706;49.036;12.112;2022-08-24T08:08:29;98083.13;;;19.42;75.08
21096;BME280;10706;49.036;12.112;2022-08-24T08:10:55;98077.34;;;19.54;73.32
21096;BME280;10706;49.036;12.112;2022-08-24T08:13:21;98084.91;;;19.57;74.23
21096;BME280;10706;49.036;12.112;2022-08-24T08:15:48;98080.44;;;19.76;72.92
21096;BME280;10706;49.036;12.112;2022-08-24T08:18:15;98075.47;;;20.08;72.23
21096;BME280;10706;49.036;12.112;2022-08-24T08:20:42;98079.78;;;20.33;70.41
21096;BME280;10706;49.036;12.112;2022-08-24T08:23:09;98076.38;;;20.22;70.67
21096;BME280;10706;49.036;12.112;2022-08-24T08:25:55;98084.22;;;20.48;69.53
21096;BME280;10706;49.036;12.112;2022-08-24T08:28:24;98082.88;;;20.45;70.72
21096;BME280;10706;49.036;12.112;2022-08-24T08:30:49;98081.03;;;20.84;68.90
21096;BME280;10706;49.036;12.112;2022-08-24T08:33:17;98080.53;;;20.82;69.05
21096;BME280;10706;49.036;12.112;2022-08-24T08:35:43;98080.81;;;20.80;69.26
21096;BME280;10706;49.036;12.112;2022-08-24T08:38:09;98082.34;;;20.86;69.31
21096;BME280;10706;49.036;12.112;2022-08-24T08:40:56;98074.69;;;21.07;68.16
21096;BME280;10706;49.036;12.112;2022-08-24T08:43:41;98081.78;;;21.22;67.39
21096;BME280;10706;49.036;12.112;2022-08-24T08:46:36;98083.75;;;21.35;66.92
21096;BME280;10706;49.036;12.112;2022-08-24T09:04:53;98073.50;;;21.65;65.32
21096;BME280;10706;49.036;12.112;2022-08-24T09:17:55;98085.00;;;22.18;64.23
21096;BME280;10706;49.036;12.112;2022-08-24T09:20:24;98079.22;;;22.75;64.68
21096;BME280;10706;49.036;12.112;2022-08-24T09:23:27;98077.56;;;23.24;59.75
21096;BME280;10706;49.036;12.112;2022-08-24T09:26:33;98072.53;;;23.40;59.13
21096;BME280;10706;49.036;12.112;2022-08-24T09:29:16;98074.97;;;23.73;60.54
21096;BME280;10706;49.036;12.112;2022-08-24T09:35:04;98064.94;;;23.82;58.64
21096;BME280;10706;49.036;12.112;2022-08-24T09:38:00;98065.94;;;23.86;58.70
21096;BME280;10706;49.036;12.112;2022-08-24T09:46:39;98072.91;;;22.88;60.35
21096;BME280;10706;49.036;12.112;2022-08-24T10:14:35;98064.19;;;23.90;57.01
21096;BME280;10706;49.036;12.112;2022-08-24T10:17:36;98052.94;;;23.60;57.93
21096;BME280;10706;49.036;12.112;2022-08-24T10:20:25;98057.47;;;23.74;58.25
21096;BME280;10706;49.036;12.112;2022-08-24T10:23:42;98045.78;;;24.13;57.17
21096;BME280;10706;49.036;12.112;2022-08-24T10:32:42;98040.94;;;24.85;56.69
21096;BME280;10706;49.036;12.112;2022-08-24T10:35:27;98042.22;;;24.53;54.52
21096;BME280;10706;49.036;12.112;2022-08-24T10:38:05;98034.34;;;24.86;56.32
21096;BME280;10706;49.036;12.112;2022-08-24T10:44:48;98037.06;;;25.38;51.80
21096;BME280;10706;49.036;12.112;2022-08-24T10:47:25;98046.34;;;25.55;52.31
21096;BME280;10706;49.036;12.112;2022-08-24T10:50:37;98036.75;;;25.40;52.06
21096;BME280;10706;49.036;12.112;2022-08-24T10:53:23;98039.03;;;25.76;52.59
21096;BME280;10706;49.036;12.112;2022-08-24T10:56:14;98033.72;;;26.18;50.12
21096;BME280;10706;49.036;12.112;2022-08-24T11:01:31;98028.34;;;26.52;49.58
21096;BME280;10706;49.036;12.112;2022-08-24T11:04:06;98023.06;;;25.87;50.53
21096;BME280;10706;49.036;12.112;2022-08-24T11:06:42;98020.50;;;26.21;51.51
21096;BME280;10706;49.036;12.112;2022-08-24T11:09:15;98022.84;;;26.52;48.42
21096;BME280;10706;49.036;12.112;2022-08-24T11:11:48;98022.09;;;26.93;47.47
21096;BME280;10706;49.036;12.112;2022-08-24T11:16:43;98017.97;;;26.36;49.40
21096;BME280;10706;49.036;12.112;2022-08-24T11:19:32;98025.63;;;26.94;46.13
21096;BME280;10706;49.036;12.112;2022-08-24T11:22:05;98021.91;;;26.77;47.82
21096;BME280;10706;49.036;12.112;2022-08-24T11:24:44;98029.81;;;26.91;46.45
21096;BME280;10706;49.036;12.112;2022-08-24T11:30:00;98028.00;;;26.53;47.85
21096;BME280;10706;49.036;12.112;2022-08-24T11:32:37;98023.63;;;26.31;48.77
21096;BME280;10706;49.036;12.112;2022-08-24T11:35:33;98021.50;;;25.77;50.17
21096;BME280;10706;49.036;12.112;2022-08-24T11:38:29;98016.66;;;25.83;49.62
21096;BME280;10706;49.036;12.112;2022-08-24T11:49:06;98013.13;;;26.12;49.75
21096;BME280;10706;49.036;12.112;2022-08-24T11:51:53;98016.59;;;26.01;51.20
21096;BME280;10706;49.036;12.112;2022-08-24T11:54:45;98010.91;;;26.35;49.23
21096;BME280;10706;49.036;12.112;2022-08-24T12:02:45;98021.94;;;27.44;46.28
21096;BME280;10706;49.036;12.112;2022-08-24T12:05:27;98014.63;;;27.48;48.27
21096;BME280;10706;49.036;12.112;2022-08-24T12:11:31;98022.72;;;28.03;44.84
21096;BME280;10706;49.036;12.112;2022-08-24T12:14:14;98016.75;;;27.76;45.14
21096;BME280;10706;49.036;12.112;2022-08-24T12:17:35;98010.66;;;26.49;45.96
21096;BME280;10706;49.036;12.112;2022-08-24T12:20:28;98016.16;;;26.70;48.90
21096;BME280;10706;49.036;12.112;2022-08-24T12:23:03;98020.41;;;26.59;48.01
21096;BME280;10706;49.036;12.112;2022-08-24T12:25:30;98016.19;;;26.11;47.50
21096;BME280;10706;49.036;12.112;2022-08-24T12:28:28;98013.03;;;26.30;49.01
21096;BME280;10706;49.036;12.112;2022-08-24T12:30:58;98007.25;;;26.94;45.97
21096;BME280;10706;49.036;12.112;2022-08-24T12:33:31;98004.19;;;27.29;45.06
21096;BME280;10706;49.036;12.112;2022-08-24T12:36:16;98003.91;;;26.89;46.43
21096;BME280;10706;49.036;12.112;2022-08-24T12:38:51;98005.00;;;26.75;48.13
21096;BME280;10706;49.036;12.112;2022-08-24T12:41:37;97995.13;;;26.32;47.73
21096;BME280;10706;49.036;12.112;2022-08-24T12:44:11;97999.88;;;26.23;47.91
21096;BME280;10706;49.036;12.112;2022-08-24T12:46:40;97993.78;;;26.17;47.19
21096;BME280;10706;49.036;12.112;2022-08-24T12:49:31;97995.72;;;26.17;46.55
21096;BME280;10706;49.036;12.112;2022-08-24T12:52:43;97990.72;;;25.80;49.19
21096;BME280;10706;49.036;12.112;2022-08-24T12:55:34;97989.53;;;25.60;49.94
21096;BME280;10706;49.036;12.112;2022-08-24T12:59:36;97989.84;;;25.68;50.98
21096;BME280;10706;49.036;12.112;2022-08-24T13:01:50;97994.16;;;25.69;50.95
21096;BME280;10706;49.036;12.112;2022-08-24T13:07:37;97990.28;;;26.08;49.28
21096;BME280;10706;49.036;12.112;2022-08-24T13:31:29;97972.84;;;26.85;46.89
21096;BME280;10706;49.036;12.112;2022-08-24T13:37:19;97970.81;;;26.94;47.40
21096;BME280;10706;49.036;12.112;2022-08-24T13:40:16;97968.69;;;27.58;45.59
21096;BME280;10706;49.036;12.112;2022-08-24T13:43:13;97977.66;;;27.91;44.98
21096;BME280;10706;49.036;12.112;2022-08-24T13:46:15;97972.13;;;28.04;43.73
21096;BME280;10706;49.036;12.112;2022-08-24T13:55:00;97970.31;;;26.80;45.41
21096;BME280;10706;49.036;12.112;2022-08-24T13:57:44;97973.53;;;26.61;46.62
21096;BME280;10706;49.036;12.112;2022-08-24T14:12:08;97975.88;;;25.60;50.93
21096;BME280;10706;49.036;12.112;2022-08-24T14:15:25;97979.41;;;25.61;51.40
21096;BME280;10706;49.036;12.112;2022-08-24T14:18:28;97973.38;;;25.20;51.01
21096;BME280;10706;49.036;12.112;2022-08-24T14:21:04;97975.50;;;25.15;51.24
21096;BME280;10706;49.036;12.112;2022-08-24T14:23:56;97976.31;;;25.07;51.94
21096;BME280;10706;49.036;12.112;2022-08-24T14:37:29;97969.56;;;25.13;52.73
21096;BME280;10706;49.036;12.112;2022-08-24T14:40:51;97957.41;;;24.93;53.29
21096;BME280;10706;49.036;12.112;2022-08-24T14:49:48;97963.13;;;25.17;53.39
21096;BME280;10706;49.036;12.112;2022-08-24T14:52:54;97960.06;;;25.19;53.62
21096;BME280;10706;49.036;12.112;2022-08-24T14:55:40;97967.91;;;25.38;53.47
21096;BME280;10706;49.036;12.112;2022-08-24T14:58:48;97956.31;;;25.41;51.92
21096;BME280;10706;49.036;12.112;2022-08-24T15:01:23;97954.66;;;25.49;52.23
21096;BME280;10706;49.036;12.112;2022-08-24T15:06:55;97958.72;;;25.81;51.67
21096;BME280;10706;49.036;12.112;2022-08-24T15:09:31;97956.88;;;25.94;52.00
21096;BME280;10706;49.036;12.112;2022-08-24T15:23:43;97947.53;;;26.25;51.59
21096;BME280;10706;49.036;12.112;2022-08-24T15:26:24;97951.13;;;26.37;50.82
21096;BME280;10706;49.036;12.112;2022-08-24T15:28:52;97942.25;;;26.41;48.62
21096;BME280;10706;49.036;12.112;2022-08-24T15:31:25;97936.63;;;26.16;50.31
21096;BME280;10706;49.036;12.112;2022-08-24T15:33:59;97941.75;;;25.96;50.51
21096;BME280;10706;49.036;12.112;2022-08-24T15:36:26;97939.56;;;25.81;51.74
21096;BME280;10706;49.036;12.112;2022-08-24T15:38:55;97938.88;;;25.84;51.38
21096;BME280;10706;49.036;12.112;2022-08-24T15:41:25;97939.91;;;25.79;51.45
21096;BME280;10706;49.036;12.112;2022-08-24T15:44:12;97937.16;;;25.50;49.67
21096;BME280;10706;49.036;12.112;2022-08-24T15:46:49;97942.50;;;25.37;51.44
21096;BME280;10706;49.036;12.112;2022-08-24T15:49:29;97941.84;;;25.40;50.06
21096;BME280;10706;49.036;12.112;2022-08-24T15:52:04;97936.25;;;25.28;49.79
21096;BME280;10706;49.036;12.112;2022-08-24T15:54:53;97939.69;;;24.99;52.55
21096;BME280;10706;49.036;12.112;2022-08-24T15:59:52;97938.59;;;24.74;51.23
21096;BME280;10706;49.036;12.112;2022-08-24T16:02:27;97933.63;;;24.67;51.55
21096;BME280;10706;49.036;12.112;2022-08-24T16:10:54;97926.75;;;24.52;51.07
21096;BME280;10706;49.036;12.112;2022-08-24T16:13:29;97932.16;;;24.43;53.63
21096;BME280;10706;49.036;12.112;2022-08-24T16:24:07;97925.13;;;24.42;54.21
21096;BME280;10706;49.036;12.112;2022-08-24T16:27:11;97936.97;;;24.38;54.44
21096;BME280;10706;49.036;12.112;2022-08-24T16:32:29;97928.66;;;24.25;55.18
21096;BME280;10706;49.036;12.112;2022-08-24T16:37:35;97928.00;;;24.20;54.74
21096;BME280;10706;49.036;12.112;2022-08-24T16:40:03;97932.63;;;24.19;54.68
21096;BME280;10706;49.036;12.112;2022-08-24T16:42:29;97931.34;;;24.17;54.58